sensor_id;sensor_type;location;lat;lon;timestamp;P1;durP1;ratioP1;P2;durP2;ratioP2
30335;SDS011;17142;47.990;7.846;2024-01-27T00:00:07;7.17;;;4.67;;
30335;SDS011;17142;47.990;7.846;2024-01-27T00:02:38;8.63;;;5.93;;
30335;SDS011;17142;47.990;7.846;2024-01-27T00:05:06;7.23;;;3.83;;
30335;SDS011;17142;47.990;7.846;2024-01-27T00:07:33;8.00;;;4.40;;
30335;SDS011;17142;47.990;7.846;2024-01-27T00:10:01;6.27;;;4.23;;
30335;SDS011;17142;47.990;7.846;2024-01-27T00:12:30;6.83;;;4.37;;
30335;SDS011;17142;47.990;7.846;2024-01-27T00:14:55;7.50;;;4.63;;
30335;SDS011;17142;47.990;7.846;2024-01-27T00:17:23;6.40;;;3.80;;
30335;SDS011;17142;47.990;7.846;2024-01-27T00:19:50;5.03;;;4.53;;
30335;SDS011;17142;47.990;7.846;2024-01-27T00:22:18;4.77;;;4.37;;
30335;SDS011;17142;47.990;7.846;2024-01-27T00:24:45;8.30;;;4.43;;
30335;SDS011;17142;47.990;7.846;2024-01-27T00:27:11;5.57;;;4.47;;
30335;SDS011;17142;47.990;7.846;2024-01-27T00:29:37;7.27;;;4.33;;
30335;SDS011;17142;47.990;7.846;2024-01-27T00:32:03;6.97;;;4.20;;
30335;SDS011;17142;47.990;7.846;2024-01-27T00:34:28;6.70;;;4.17;;
30335;SDS011;17142;47.990;7.846;2024-01-27T00:36:54;7.37;;;4.87;;
30335;SDS011;17142;47.990;7.846;2024-01-27T00:39:22;9.50;;;4.47;;
30335;SDS011;17142;47.990;7.846;2024-01-27T00:41:47;7.73;;;4.50;;
30335;SDS011;17142;47.990;7.846;2024-01-27T00:44:13;4.63;;;4.20;;
30335;SDS011;17142;47.990;7.846;2024-01-27T00:46:39;7.00;;;4.20;;
30335;SDS011;17142;47.990;7.846;2024-01-27T00:49:07;6.23;;;5.10;;
30335;SDS011;17142;47.990;7.846;2024-01-27T00:51:32;7.00;;;4.63;;
30335;SDS011;17142;47.990;7.846;2024-01-27T00:53:58;4.53;;;3.90;;
30335;SDS011;17142;47.990;7.846;2024-01-27T00:56:24;4.83;;;4.00;;
30335;SDS011;17142;47.990;7.846;2024-01-27T00:58:49;12.43;;;4.17;;
30335;SDS011;17142;47.990;7.846;2024-01-27T01:01:15;7.37;;;4.17;;
30335;SDS011;17142;47.990;7.846;2024-01-27T01:03:43;6.30;;;4.60;;
30335;SDS011;17142;47.990;7.846;2024-01-27T01:06:11;9.80;;;5.00;;
30335;SDS011;17142;47.990;7.846;2024-01-27T01:08:36;6.03;;;4.47;;
30335;SDS011;17142;47.990;7.846;2024-01-27T01:11:02;6.97;;;5.27;;
30335;SDS011;17142;47.990;7.846;2024-01-27T01:13:30;10.17;;;4.80;;
30335;SDS011;17142;47.990;7.846;2024-01-27T01:15:58;5.50;;;3.60;;
30335;SDS011;17142;47.990;7.846;2024-01-27T01:18:24;5.50;;;4.27;;
30335;SDS011;17142;47.990;7.846;2024-01-27T01:20:49;6.27;;;4.80;;
30335;SDS011;17142;47.990;7.846;2024-01-27T01:23:18;4.83;;;4.20;;
30335;SDS011;17142;47.990;7.846;2024-01-27T01:25:45;8.60;;;5.27;;
30335;SDS011;17142;47.990;7.846;2024-01-27T01:28:11;7.80;;;4.80;;
30335;SDS011;17142;47.990;7.846;2024-01-27T01:30:39;8.07;;;4.90;;
30335;SDS011;17142;47.990;7.846;2024-01-27T01:33:05;11.23;;;5.27;;
30335;SDS011;17142;47.990;7.846;2024-01-27T01:35:30;13.73;;;5.20;;
30335;SDS011;17142;47.990;7.846;2024-01-27T01:37:58;10.40;;;4.60;;
30335;SDS011;17142;47.990;7.846;2024-01-27T01:40:27;15.07;;;4.27;;
30335;SDS011;17142;47.990;7.846;2024-01-27T01:42:53;6.77;;;4.37;;
30335;SDS011;17142;47.990;7.846;2024-01-27T01:45:18;5.03;;;3.80;;
30335;SDS011;17142;47.990;7.846;2024-01-27T01:47:45;10.63;;;5.03;;
30335;SDS011;17142;47.990;7.846;2024-01-27T01:50:13;4.73;;;4.27;;
30335;SDS011;17142;47.990;7.846;2024-01-27T01:52:39;6.37;;;4.00;;
30335;SDS011;17142;47.990;7.846;2024-01-27T01:55:05;12.13;;;4.20;;
30335;SDS011;17142;47.990;7.846;2024-01-27T01:57:32;4.97;;;3.50;;
30335;SDS011;17142;47.990;7.846;2024-01-27T01:59:58;4.30;;;3.70;;
30335;SDS011;17142;47.990;7.846;2024-01-27T02:02:26;6.07;;;2.90;;
30335;SDS011;17142;47.990;7.846;2024-01-27T02:04:52;8.60;;;5.30;;
30335;SDS011;17142;47.990;7.846;2024-01-27T02:07:17;4.00;;;2.70;;
30335;SDS011;17142;47.990;7.846;2024-01-27T02:09:43;13.93;;;3.60;;
30335;SDS011;17142;47.990;7.846;2024-01-27T02:12:09;7.20;;;3.13;;
30335;SDS011;17142;47.990;7.846;2024-01-27T02:14:34;3.53;;;3.03;;
30335;SDS011;17142;47.990;7.846;2024-01-27T02:17:02;7.10;;;2.70;;
30335;SDS011;17142;47.990;7.846;2024-01-27T02:19:31;4.50;;;2.90;;
30335;SDS011;17142;47.990;7.846;2024-01-27T02:21:59;4.80;;;2.47;;
30335;SDS011;17142;47.990;7.846;2024-01-27T02:24:24;3.33;;;2.30;;
30335;SDS011;17142;47.990;7.846;2024-01-27T02:26:52;8.07;;;2.67;;
30335;SDS011;17142;47.990;7.846;2024-01-27T02:29:17;6.40;;;4.23;;
30335;SDS011;17142;47.990;7.846;2024-01-27T02:31:47;8.33;;;3.50;;
30335;SDS011;17142;47.990;7.846;2024-01-27T02:34:12;3.63;;;2.17;;
30335;SDS011;17142;47.990;7.846;2024-01-27T02:36:38;8.77;;;2.80;;
30335;SDS011;17142;47.990;7.846;2024-01-27T02:39:04;3.47;;;2.73;;
30335;SDS011;17142;47.990;7.846;2024-01-27T02:41:29;15.07;;;2.77;;
30335;SDS011;17142;47.990;7.846;2024-01-27T02:43:55;5.23;;;2.20;;
30335;SDS011;17142;47.990;7.846;2024-01-27T02:46:23;6.23;;;2.93;;
30335;SDS011;17142;47.990;7.846;2024-01-27T02:48:49;10.53;;;3.20;;
30335;SDS011;17142;47.990;7.846;2024-01-27T02:51:19;4.90;;;3.17;;
30335;SDS011;17142;47.990;7.846;2024-01-27T02:53:50;6.07;;;3.43;;
30335;SDS011;17142;47.990;7.846;2024-01-27T02:56:16;9.70;;;2.27;;
30335;SDS011;17142;47.990;7.846;2024-01-27T02:58:42;7.00;;;3.07;;
30335;SDS011;17142;47.990;7.846;2024-01-27T03:01:07;2.93;;;2.60;;
30335;SDS011;17142;47.990;7.846;2024-01-27T03:03:35;6.90;;;2.40;;
30335;SDS011;17142;47.990;7.846;2024-01-27T03:06:01;6.23;;;1.70;;
30335;SDS011;17142;47.990;7.846;2024-01-27T03:08:27;4.50;;;2.80;;
30335;SDS011;17142;47.990;7.846;2024-01-27T03:10:55;2.40;;;2.10;;
30335;SDS011;17142;47.990;7.846;2024-01-27T03:13:20;2.10;;;1.90;;
30335;SDS011;17142;47.990;7.846;2024-01-27T03:15:46;2.60;;;1.67;;
30335;SDS011;17142;47.990;7.846;2024-01-27T03:18:12;6.40;;;1.93;;
30335;SDS011;17142;47.990;7.846;2024-01-27T03:20:38;3.67;;;2.87;;
30335;SDS011;17142;47.990;7.846;2024-01-27T03:23:06;2.80;;;1.80;;
30335;SDS011;17142;47.990;7.846;2024-01-27T03:25:32;2.17;;;1.57;;
30335;SDS011;17142;47.990;7.846;2024-01-27T03:27:58;5.20;;;2.90;;
30335;SDS011;17142;47.990;7.846;2024-01-27T03:30:25;2.20;;;2.07;;
30335;SDS011;17142;47.990;7.846;2024-01-27T03:32:51;3.37;;;2.80;;
30335;SDS011;17142;47.990;7.846;2024-01-27T03:35:17;2.93;;;2.63;;
30335;SDS011;17142;47.990;7.846;2024-01-27T03:37:45;5.53;;;2.47;;
30335;SDS011;17142;47.990;7.846;2024-01-27T03:40:11;3.33;;;2.97;;
30335;SDS011;17142;47.990;7.846;2024-01-27T03:42:37;2.57;;;2.27;;
30335;SDS011;17142;47.990;7.846;2024-01-27T03:45:02;2.93;;;1.93;;
30335;SDS011;17142;47.990;7.846;2024-01-27T03:47:28;2.53;;;2.33;;
30335;SDS011;17142;47.990;7.846;2024-01-27T03:49:54;5.70;;;2.40;;
30335;SDS011;17142;47.990;7.846;2024-01-27T03:52:19;5.43;;;2.53;;
30335;SDS011;17142;47.990;7.846;2024-01-27T03:54:45;5.90;;;2.90;;
30335;SDS011;17142;47.990;7.846;2024-01-27T03:57:11;2.57;;;2.13;;
30335;SDS011;17142;47.990;7.846;2024-01-27T03:59:41;3.43;;;2.10;;
30335;SDS011;17142;47.990;7.846;2024-01-27T04:02:09;4.10;;;1.87;;
30335;SDS011;17142;47.990;7.846;2024-01-27T04:04:35;6.70;;;2.70;;
30335;SDS011;17142;47.990;7.846;2024-01-27T04:07:00;1.80;;;1.70;;
30335;SDS011;17142;47.990;7.846;2024-01-27T04:09:26;6.00;;;1.90;;
30335;SDS011;17142;47.990;7.846;2024-01-27T04:11:52;12.30;;;2.73;;
30335;SDS011;17142;47.990;7.846;2024-01-27T04:14:18;5.73;;;2.80;;
30335;SDS011;17142;47.990;7.846;2024-01-27T04:16:43;3.50;;;2.73;;
30335;SDS011;17142;47.990;7.846;2024-01-27T04:19:09;3.97;;;2.23;;
30335;SDS011;17142;47.990;7.846;2024-01-27T04:21:35;3.60;;;3.13;;
30335;SDS011;17142;47.990;7.846;2024-01-27T04:24:01;4.83;;;2.87;;
30335;SDS011;17142;47.990;7.846;2024-01-27T04:26:27;3.50;;;2.73;;
30335;SDS011;17142;47.990;7.846;2024-01-27T04:28:52;20.93;;;3.50;;
30335;SDS011;17142;47.990;7.846;2024-01-27T04:31:22;3.60;;;2.20;;
30335;SDS011;17142;47.990;7.846;2024-01-27T04:33:50;2.73;;;2.50;;
30335;SDS011;17142;47.990;7.846;2024-01-27T04:36:24;4.03;;;2.63;;
30335;SDS011;17142;47.990;7.846;2024-01-27T04:38:55;6.53;;;2.90;;
30335;SDS011;17142;47.990;7.846;2024-01-27T04:41:21;3.43;;;2.30;;
30335;SDS011;17142;47.990;7.846;2024-01-27T04:43:47;5.00;;;3.03;;
30335;SDS011;17142;47.990;7.846;2024-01-27T04:46:13;4.13;;;3.07;;
30335;SDS011;17142;47.990;7.846;2024-01-27T04:48:38;8.27;;;3.83;;
30335;SDS011;17142;47.990;7.846;2024-01-27T04:51:04;4.40;;;2.20;;
30335;SDS011;17142;47.990;7.846;2024-01-27T04:53:32;5.53;;;2.50;;
30335;SDS011;17142;47.990;7.846;2024-01-27T04:55:57;4.87;;;3.03;;
30335;SDS011;17142;47.990;7.846;2024-01-27T04:58:23;4.00;;;2.70;;
30335;SDS011;17142;47.990;7.846;2024-01-27T05:00:49;5.40;;;4.03;;
30335;SDS011;17142;47.990;7.846;2024-01-27T05:03:14;6.30;;;3.30;;
30335;SDS011;17142;47.990;7.846;2024-01-27T05:05:41;6.43;;;3.50;;
30335;SDS011;17142;47.990;7.846;2024-01-27T05:08:07;8.03;;;3.73;;
30335;SDS011;17142;47.990;7.846;2024-01-27T05:10:34;5.60;;;3.10;;
30335;SDS011;17142;47.990;7.846;2024-01-27T05:12:59;5.03;;;3.00;;
30335;SDS011;17142;47.990;7.846;2024-01-27T05:15:25;2.87;;;2.67;;
30335;SDS011;17142;47.990;7.846;2024-01-27T05:17:53;3.37;;;2.87;;
30335;SDS011;17142;47.990;7.846;2024-01-27T05:20:21;5.90;;;3.10;;
30335;SDS011;17142;47.990;7.846;2024-01-27T05:22:49;3.47;;;3.00;;
30335;SDS011;17142;47.990;7.846;2024-01-27T05:25:14;7.13;;;3.50;;
30335;SDS011;17142;47.990;7.846;2024-01-27T05:27:41;2.97;;;2.70;;
30335;SDS011;17142;47.990;7.846;2024-01-27T05:30:07;7.57;;;3.67;;
30335;SDS011;17142;47.990;7.846;2024-01-27T05:32:36;6.10;;;3.10;;
30335;SDS011;17142;47.990;7.846;2024-01-27T05:35:01;10.30;;;3.27;;
30335;SDS011;17142;47.990;7.846;2024-01-27T05:37:30;3.33;;;2.73;;
30335;SDS011;17142;47.990;7.846;2024-01-27T05:39:55;9.23;;;3.40;;
30335;SDS011;17142;47.990;7.846;2024-01-27T05:42:21;5.40;;;3.80;;
30335;SDS011;17142;47.990;7.846;2024-01-27T05:44:47;6.00;;;2.93;;
30335;SDS011;17142;47.990;7.846;2024-01-27T05:47:13;5.93;;;3.50;;
30335;SDS011;17142;47.990;7.846;2024-01-27T05:49:41;4.47;;;3.20;;
30335;SDS011;17142;47.990;7.846;2024-01-27T05:52:09;6.50;;;3.13;;
30335;SDS011;17142;47.990;7.846;2024-01-27T05:54:39;4.80;;;3.43;;
30335;SDS011;17142;47.990;7.846;2024-01-27T05:57:05;5.90;;;4.27;;
30335;SDS011;17142;47.990;7.846;2024-01-27T05:59:33;4.20;;;3.07;;
30335;SDS011;17142;47.990;7.846;2024-01-27T06:01:59;4.53;;;3.17;;
30335;SDS011;17142;47.990;7.846;2024-01-27T06:04:27;7.33;;;3.67;;
30335;SDS011;17142;47.990;7.846;2024-01-27T06:06:54;7.70;;;3.80;;
30335;SDS011;17142;47.990;7.846;2024-01-27T06:09:19;6.13;;;1.80;;
30335;SDS011;17142;47.990;7.846;2024-01-27T06:11:47;4.23;;;1.90;;
30335;SDS011;17142;47.990;7.846;2024-01-27T06:14:13;8.10;;;3.20;;
30335;SDS011;17142;47.990;7.846;2024-01-27T06:16:39;8.53;;;3.60;;
30335;SDS011;17142;47.990;7.846;2024-01-27T06:19:04;5.83;;;2.97;;
30335;SDS011;17142;47.990;7.846;2024-01-27T06:21:30;5.37;;;3.03;;
30335;SDS011;17142;47.990;7.846;2024-01-27T06:23:56;12.63;;;3.80;;
30335;SDS011;17142;47.990;7.846;2024-01-27T06:26:23;12.50;;;4.00;;
30335;SDS011;17142;47.990;7.846;2024-01-27T06:28:51;8.50;;;3.27;;
30335;SDS011;17142;47.990;7.846;2024-01-27T06:31:20;5.80;;;4.03;;
30335;SDS011;17142;47.990;7.846;2024-01-27T06:33:45;10.33;;;4.07;;
30335;SDS011;17142;47.990;7.846;2024-01-27T06:36:13;5.50;;;3.20;;
30335;SDS011;17142;47.990;7.846;2024-01-27T06:38:39;8.03;;;3.87;;
30335;SDS011;17142;47.990;7.846;2024-01-27T06:41:05;8.30;;;2.40;;
30335;SDS011;17142;47.990;7.846;2024-01-27T06:43:30;6.30;;;3.90;;
30335;SDS011;17142;47.990;7.846;2024-01-27T06:45:56;5.83;;;2.87;;
30335;SDS011;17142;47.990;7.846;2024-01-27T06:48:24;8.53;;;3.77;;
30335;SDS011;17142;47.990;7.846;2024-01-27T06:50:51;5.07;;;2.70;;
30335;SDS011;17142;47.990;7.846;2024-01-27T06:53:18;10.17;;;3.17;;
30335;SDS011;17142;47.990;7.846;2024-01-27T06:55:46;7.50;;;2.90;;
30335;SDS011;17142;47.990;7.846;2024-01-27T06:58:11;5.40;;;3.20;;
30335;SDS011;17142;47.990;7.846;2024-01-27T07:00:42;6.77;;;4.07;;
30335;SDS011;17142;47.990;7.846;2024-01-27T07:03:07;5.10;;;3.60;;
30335;SDS011;17142;47.990;7.846;2024-01-27T07:05:33;6.53;;;3.07;;
30335;SDS011;17142;47.990;7.846;2024-01-27T07:08:04;6.07;;;3.90;;
30335;SDS011;17142;47.990;7.846;2024-01-27T07:10:33;12.83;;;4.90;;
30335;SDS011;17142;47.990;7.846;2024-01-27T07:12:59;5.53;;;3.60;;
30335;SDS011;17142;47.990;7.846;2024-01-27T07:15:25;6.53;;;3.90;;
30335;SDS011;17142;47.990;7.846;2024-01-27T07:17:52;8.70;;;4.43;;
30335;SDS011;17142;47.990;7.846;2024-01-27T07:20:19;5.93;;;4.10;;
30335;SDS011;17142;47.990;7.846;2024-01-27T07:22:49;5.63;;;4.43;;
30335;SDS011;17142;47.990;7.846;2024-01-27T07:25:15;7.23;;;4.93;;
30335;SDS011;17142;47.990;7.846;2024-01-27T07:27:43;7.77;;;4.90;;
30335;SDS011;17142;47.990;7.846;2024-01-27T07:30:09;7.37;;;5.30;;
30335;SDS011;17142;47.990;7.846;2024-01-27T07:32:38;7.40;;;6.30;;
30335;SDS011;17142;47.990;7.846;2024-01-27T07:35:05;7.90;;;5.83;;
30335;SDS011;17142;47.990;7.846;2024-01-27T07:37:34;6.40;;;5.13;;
30335;SDS011;17142;47.990;7.846;2024-01-27T07:39:59;10.03;;;6.37;;
30335;SDS011;17142;47.990;7.846;2024-01-27T07:42:25;8.17;;;4.90;;
30335;SDS011;17142;47.990;7.846;2024-01-27T07:44:50;6.97;;;5.00;;
30335;SDS011;17142;47.990;7.846;2024-01-27T07:47:16;8.73;;;5.33;;
30335;SDS011;17142;47.990;7.846;2024-01-27T07:49:42;10.17;;;4.80;;
30335;SDS011;17142;47.990;7.846;2024-01-27T07:52:08;13.03;;;5.93;;
30335;SDS011;17142;47.990;7.846;2024-01-27T07:54:33;9.50;;;5.67;;
30335;SDS011;17142;47.990;7.846;2024-01-27T07:57:04;6.90;;;4.70;;
30335;SDS011;17142;47.990;7.846;2024-01-27T07:59:30;6.30;;;4.80;;
30335;SDS011;17142;47.990;7.846;2024-01-27T08:01:55;4.17;;;2.70;;
30335;SDS011;17142;47.990;7.846;2024-01-27T08:04:21;6.60;;;4.33;;
30335;SDS011;17142;47.990;7.846;2024-01-27T08:06:47;8.23;;;5.10;;
30335;SDS011;17142;47.990;7.846;2024-01-27T08:09:14;9.60;;;4.50;;
30335;SDS011;17142;47.990;7.846;2024-01-27T08:11:41;8.20;;;5.20;;
30335;SDS011;17142;47.990;7.846;2024-01-27T08:14:10;11.63;;;5.47;;
30335;SDS011;17142;47.990;7.846;2024-01-27T08:16:36;7.00;;;5.50;;
30335;SDS011;17142;47.990;7.846;2024-01-27T08:19:02;17.27;;;6.23;;
30335;SDS011;17142;47.990;7.846;2024-01-27T08:21:27;9.90;;;5.37;;
30335;SDS011;17142;47.990;7.846;2024-01-27T08:23:53;5.43;;;4.83;;
30335;SDS011;17142;47.990;7.846;2024-01-27T08:26:20;24.43;;;8.60;;
30335;SDS011;17142;47.990;7.846;2024-01-27T08:28:49;18.40;;;8.03;;
30335;SDS011;17142;47.990;7.846;2024-01-27T08:31:17;14.20;;;7.00;;
30335;SDS011;17142;47.990;7.846;2024-01-27T08:33:44;14.07;;;6.60;;
30335;SDS011;17142;47.990;7.846;2024-01-27T08:36:13;12.77;;;6.40;;
30335;SDS011;17142;47.990;7.846;2024-01-27T08:38:42;7.23;;;5.50;;
30335;SDS011;17142;47.990;7.846;2024-01-27T08:41:10;13.13;;;4.70;;
30335;SDS011;17142;47.990;7.846;2024-01-27T08:43:38;9.07;;;4.80;;
30335;SDS011;17142;47.990;7.846;2024-01-27T08:46:06;6.83;;;4.83;;
30335;SDS011;17142;47.990;7.846;2024-01-27T08:48:36;7.70;;;5.00;;
30335;SDS011;17142;47.990;7.846;2024-01-27T08:51:01;8.17;;;5.00;;
30335;SDS011;17142;47.990;7.846;2024-01-27T08:53:27;12.20;;;4.97;;
30335;SDS011;17142;47.990;7.846;2024-01-27T08:55:53;7.33;;;4.73;;
30335;SDS011;17142;47.990;7.846;2024-01-27T08:58:18;6.83;;;4.40;;
30335;SDS011;17142;47.990;7.846;2024-01-27T09:00:46;7.23;;;3.97;;
30335;SDS011;17142;47.990;7.846;2024-01-27T09:03:14;3.87;;;2.90;;
30335;SDS011;17142;47.990;7.846;2024-01-27T09:05:41;5.03;;;3.17;;
30335;SDS011;17142;47.990;7.846;2024-01-27T09:08:08;8.00;;;3.00;;
30335;SDS011;17142;47.990;7.846;2024-01-27T09:10:34;3.97;;;3.57;;
30335;SDS011;17142;47.990;7.846;2024-01-27T09:13:00;5.30;;;3.40;;
30335;SDS011;17142;47.990;7.846;2024-01-27T09:15:25;9.63;;;4.17;;
30335;SDS011;17142;47.990;7.846;2024-01-27T09:17:51;7.23;;;3.70;;
30335;SDS011;17142;47.990;7.846;2024-01-27T09:20:17;3.57;;;3.27;;
30335;SDS011;17142;47.990;7.846;2024-01-27T09:22:45;4.10;;;3.50;;
30335;SDS011;17142;47.990;7.846;2024-01-27T09:25:14;5.60;;;3.73;;
30335;SDS011;17142;47.990;7.846;2024-01-27T09:27:40;9.60;;;3.73;;
30335;SDS011;17142;47.990;7.846;2024-01-27T09:30:06;8.63;;;3.43;;
30335;SDS011;17142;47.990;7.846;2024-01-27T09:32:32;6.80;;;3.80;;
30335;SDS011;17142;47.990;7.846;2024-01-27T09:34:58;4.20;;;3.33;;
30335;SDS011;17142;47.990;7.846;2024-01-27T09:37:24;4.03;;;3.50;;
30335;SDS011;17142;47.990;7.846;2024-01-27T09:39:49;4.10;;;3.70;;
30335;SDS011;17142;47.990;7.846;2024-01-27T09:42:15;6.37;;;3.83;;
30335;SDS011;17142;47.990;7.846;2024-01-27T09:44:48;6.33;;;4.07;;
30335;SDS011;17142;47.990;7.846;2024-01-27T09:47:15;5.30;;;3.90;;
30335;SDS011;17142;47.990;7.846;2024-01-27T09:49:41;5.60;;;4.77;;
30335;SDS011;17142;47.990;7.846;2024-01-27T09:52:07;10.23;;;4.10;;
30335;SDS011;17142;47.990;7.846;2024-01-27T09:54:33;5.70;;;3.60;;
30335;SDS011;17142;47.990;7.846;2024-01-27T09:56:59;5.63;;;3.40;;
30335;SDS011;17142;47.990;7.846;2024-01-27T09:59:26;4.50;;;2.57;;
30335;SDS011;17142;47.990;7.846;2024-01-27T10:01:52;7.83;;;2.80;;
30335;SDS011;17142;47.990;7.846;2024-01-27T10:04:19;9.00;;;3.67;;
30335;SDS011;17142;47.990;7.846;2024-01-27T10:06:47;5.10;;;3.10;;
30335;SDS011;17142;47.990;7.846;2024-01-27T10:09:18;3.00;;;2.13;;
30335;SDS011;17142;47.990;7.846;2024-01-27T10:11:45;7.93;;;3.70;;
30335;SDS011;17142;47.990;7.846;2024-01-27T10:14:12;4.87;;;3.37;;
30335;SDS011;17142;47.990;7.846;2024-01-27T10:16:44;7.30;;;4.37;;
30335;SDS011;17142;47.990;7.846;2024-01-27T10:19:16;9.17;;;3.87;;
30335;SDS011;17142;47.990;7.846;2024-01-27T10:21:46;4.40;;;3.17;;
30335;SDS011;17142;47.990;7.846;2024-01-27T10:24:12;4.80;;;2.80;;
30335;SDS011;17142;47.990;7.846;2024-01-27T10:26:38;8.77;;;2.90;;
30335;SDS011;17142;47.990;7.846;2024-01-27T10:29:07;3.20;;;2.57;;
30335;SDS011;17142;47.990;7.846;2024-01-27T10:31:34;4.80;;;2.43;;
30335;SDS011;17142;47.990;7.846;2024-01-27T10:34:01;4.20;;;2.50;;
30335;SDS011;17142;47.990;7.846;2024-01-27T10:36:42;4.27;;;2.33;;
30335;SDS011;17142;47.990;7.846;2024-01-27T10:39:21;3.30;;;2.20;;
30335;SDS011;17142;47.990;7.846;2024-01-27T10:41:48;5.23;;;2.30;;
30335;SDS011;17142;47.990;7.846;2024-01-27T10:44:14;9.30;;;2.97;;
30335;SDS011;17142;47.990;7.846;2024-01-27T10:46:42;4.20;;;2.73;;
30335;SDS011;17142;47.990;7.846;2024-01-27T10:49:12;6.10;;;2.60;;
30335;SDS011;17142;47.990;7.846;2024-01-27T10:51:42;3.50;;;1.90;;
30335;SDS011;17142;47.990;7.846;2024-01-27T10:54:10;6.90;;;2.83;;
30335;SDS011;17142;47.990;7.846;2024-01-27T10:56:40;7.40;;;2.70;;
30335;SDS011;17142;47.990;7.846;2024-01-27T10:59:07;9.03;;;4.33;;
30335;SDS011;17142;47.990;7.846;2024-01-27T11:01:35;6.80;;;3.47;;
30335;SDS011;17142;47.990;7.846;2024-01-27T11:04:07;4.50;;;2.60;;
30335;SDS011;17142;47.990;7.846;2024-01-27T11:06:38;3.43;;;2.00;;
30335;SDS011;17142;47.990;7.846;2024-01-27T11:09:04;2.50;;;2.17;;
30335;SDS011;17142;47.990;7.846;2024-01-27T11:11:33;6.60;;;2.30;;
30335;SDS011;17142;47.990;7.846;2024-01-27T11:13:59;6.43;;;2.83;;
30335;SDS011;17142;47.990;7.846;2024-01-27T11:16:27;2.10;;;1.80;;
30335;SDS011;17142;47.990;7.846;2024-01-27T11:18:53;3.93;;;2.40;;
30335;SDS011;17142;47.990;7.846;2024-01-27T11:21:19;5.70;;;3.50;;
30335;SDS011;17142;47.990;7.846;2024-01-27T11:23:45;3.97;;;2.80;;
30335;SDS011;17142;47.990;7.846;2024-01-27T11:26:17;2.87;;;2.67;;
30335;SDS011;17142;47.990;7.846;2024-01-27T11:28:44;3.37;;;2.67;;
30335;SDS011;17142;47.990;7.846;2024-01-27T11:31:10;4.73;;;2.87;;
30335;SDS011;17142;47.990;7.846;2024-01-27T11:33:40;6.17;;;2.67;;
30335;SDS011;17142;47.990;7.846;2024-01-27T11:36:14;4.43;;;2.40;;
30335;SDS011;17142;47.990;7.846;2024-01-27T11:38:44;5.90;;;3.10;;
30335;SDS011;17142;47.990;7.846;2024-01-27T11:41:13;6.13;;;3.10;;
30335;SDS011;17142;47.990;7.846;2024-01-27T11:43:51;3.90;;;2.50;;
30335;SDS011;17142;47.990;7.846;2024-01-27T11:46:19;3.53;;;2.33;;
30335;SDS011;17142;47.990;7.846;2024-01-27T11:48:48;5.23;;;3.30;;
30335;SDS011;17142;47.990;7.846;2024-01-27T11:51:14;2.83;;;2.47;;
30335;SDS011;17142;47.990;7.846;2024-01-27T11:53:43;2.43;;;2.23;;
30335;SDS011;17142;47.990;7.846;2024-01-27T11:56:10;6.27;;;2.30;;
30335;SDS011;17142;47.990;7.846;2024-01-27T11:58:36;5.23;;;2.97;;
30335;SDS011;17142;47.990;7.846;2024-01-27T12:01:01;5.90;;;2.27;;
30335;SDS011;17142;47.990;7.846;2024-01-27T12:03:30;2.73;;;2.50;;
30335;SDS011;17142;47.990;7.846;2024-01-27T12:05:55;5.90;;;2.30;;
30335;SDS011;17142;47.990;7.846;2024-01-27T12:08:21;3.57;;;2.10;;
30335;SDS011;17142;47.990;7.846;2024-01-27T12:10:47;4.30;;;2.63;;
30335;SDS011;17142;47.990;7.846;2024-01-27T12:13:12;4.07;;;2.40;;
30335;SDS011;17142;47.990;7.846;2024-01-27T12:15:40;4.83;;;3.20;;
30335;SDS011;17142;47.990;7.846;2024-01-27T12:18:06;10.60;;;3.57;;
30335;SDS011;17142;47.990;7.846;2024-01-27T12:20:32;4.47;;;2.70;;
30335;SDS011;17142;47.990;7.846;2024-01-27T12:23:06;3.70;;;2.70;;
30335;SDS011;17142;47.990;7.846;2024-01-27T12:25:32;7.93;;;3.50;;
30335;SDS011;17142;47.990;7.846;2024-01-27T12:28:05;4.60;;;2.40;;
30335;SDS011;17142;47.990;7.846;2024-01-27T12:30:32;8.97;;;2.43;;
30335;SDS011;17142;47.990;7.846;2024-01-27T12:32:59;5.43;;;2.90;;
30335;SDS011;17142;47.990;7.846;2024-01-27T12:35:25;5.67;;;2.30;;
30335;SDS011;17142;47.990;7.846;2024-01-27T12:37:52;4.50;;;2.67;;
30335;SDS011;17142;47.990;7.846;2024-01-27T12:40:19;5.60;;;3.03;;
30335;SDS011;17142;47.990;7.846;2024-01-27T12:42:46;5.50;;;2.23;;
30335;SDS011;17142;47.990;7.846;2024-01-27T12:45:12;3.23;;;2.30;;
30335;SDS011;17142;47.990;7.846;2024-01-27T12:47:38;6.03;;;4.03;;
30335;SDS011;17142;47.990;7.846;2024-01-27T12:50:07;5.03;;;2.50;;
30335;SDS011;17142;47.990;7.846;2024-01-27T12:52:33;7.43;;;3.07;;
30335;SDS011;17142;47.990;7.846;2024-01-27T12:55:01;3.30;;;2.27;;
30335;SDS011;17142;47.990;7.846;2024-01-27T12:57:27;3.87;;;2.43;;
30335;SDS011;17142;47.990;7.846;2024-01-27T12:59:55;8.07;;;3.50;;
30335;SDS011;17142;47.990;7.846;2024-01-27T13:02:21;6.20;;;3.00;;
30335;SDS011;17142;47.990;7.846;2024-01-27T13:04:49;3.60;;;2.50;;
30335;SDS011;17142;47.990;7.846;2024-01-27T13:07:14;4.97;;;3.50;;
30335;SDS011;17142;47.990;7.846;2024-01-27T13:09:40;10.13;;;3.17;;
30335;SDS011;17142;47.990;7.846;2024-01-27T13:12:05;5.80;;;3.17;;
30335;SDS011;17142;47.990;7.846;2024-01-27T13:14:31;6.20;;;3.60;;
30335;SDS011;17142;47.990;7.846;2024-01-27T13:16:57;2.20;;;2.00;;
30335;SDS011;17142;47.990;7.846;2024-01-27T13:19:27;7.40;;;2.83;;
30335;SDS011;17142;47.990;7.846;2024-01-27T13:21:53;2.40;;;1.70;;
30335;SDS011;17142;47.990;7.846;2024-01-27T13:24:18;4.60;;;2.43;;
30335;SDS011;17142;47.990;7.846;2024-01-27T13:26:45;5.00;;;2.23;;
30335;SDS011;17142;47.990;7.846;2024-01-27T13:29:11;2.73;;;2.03;;
30335;SDS011;17142;47.990;7.846;2024-01-27T13:31:39;5.00;;;1.93;;
30335;SDS011;17142;47.990;7.846;2024-01-27T13:34:07;6.00;;;2.70;;
30335;SDS011;17142;47.990;7.846;2024-01-27T13:36:35;6.07;;;2.37;;
30335;SDS011;17142;47.990;7.846;2024-01-27T13:39:01;3.20;;;2.70;;
30335;SDS011;17142;47.990;7.846;2024-01-27T13:41:27;5.70;;;2.23;;
30335;SDS011;17142;47.990;7.846;2024-01-27T13:43:55;6.17;;;2.20;;
30335;SDS011;17142;47.990;7.846;2024-01-27T13:46:21;2.57;;;2.37;;
30335;SDS011;17142;47.990;7.846;2024-01-27T13:48:47;3.10;;;2.23;;
30335;SDS011;17142;47.990;7.846;2024-01-27T13:51:14;12.03;;;3.80;;
30335;SDS011;17142;47.990;7.846;2024-01-27T13:53:41;7.03;;;3.70;;
30335;SDS011;17142;47.990;7.846;2024-01-27T13:56:07;3.83;;;3.10;;
30335;SDS011;17142;47.990;7.846;2024-01-27T13:58:33;4.50;;;2.67;;
30335;SDS011;17142;47.990;7.846;2024-01-27T14:01:01;6.07;;;3.20;;
30335;SDS011;17142;47.990;7.846;2024-01-27T14:03:28;4.30;;;3.90;;
30335;SDS011;17142;47.990;7.846;2024-01-27T14:05:56;5.70;;;2.90;;
30335;SDS011;17142;47.990;7.846;2024-01-27T14:08:22;4.07;;;2.97;;
30335;SDS011;17142;47.990;7.846;2024-01-27T14:10:49;6.57;;;3.67;;
30335;SDS011;17142;47.990;7.846;2024-01-27T14:13:16;6.67;;;4.00;;
30335;SDS011;17142;47.990;7.846;2024-01-27T14:15:42;4.27;;;3.33;;
30335;SDS011;17142;47.990;7.846;2024-01-27T14:18:08;7.73;;;4.10;;
30335;SDS011;17142;47.990;7.846;2024-01-27T14:20:34;10.20;;;4.13;;
30335;SDS011;17142;47.990;7.846;2024-01-27T14:23:02;5.63;;;3.60;;
30335;SDS011;17142;47.990;7.846;2024-01-27T14:25:28;5.93;;;3.93;;
30335;SDS011;17142;47.990;7.846;2024-01-27T14:27:56;6.20;;;3.83;;
30335;SDS011;17142;47.990;7.846;2024-01-27T14:30:22;8.00;;;3.70;;
30335;SDS011;17142;47.990;7.846;2024-01-27T14:32:49;4.80;;;3.23;;
30335;SDS011;17142;47.990;7.846;2024-01-27T14:35:15;5.80;;;3.87;;
30335;SDS011;17142;47.990;7.846;2024-01-27T14:37:41;5.37;;;3.20;;
30335;SDS011;17142;47.990;7.846;2024-01-27T14:40:06;5.30;;;3.40;;
30335;SDS011;17142;47.990;7.846;2024-01-27T14:42:33;7.67;;;3.63;;